createdAt,value
2022-10-25T00:00:15.261Z,12.68
2022-10-25T00:02:45.098Z,12.53
2022-10-25T00:05:16.568Z,12.60
2022-10-25T00:07:46.932Z,12.58
2022-10-25T00:10:22.243Z,12.55
2022-10-25T00:12:55.246Z,12.65
2022-10-25T00:15:25.377Z,12.47
2022-10-25T00:17:55.599Z,12.52
2022-10-25T00:20:25.327Z,12.49
2022-10-25T00:22:55.070Z,12.40
2022-10-25T00:25:27.336Z,12.29
2022-10-25T00:27:57.060Z,12.38
2022-10-25T00:30:26.733Z,12.39
2022-10-25T00:32:56.480Z,12.34
2022-10-25T00:35:26.207Z,12.32
2022-10-25T00:37:55.891Z,12.57
2022-10-25T00:40:28.335Z,12.57
2022-10-25T00:42:57.981Z,12.60
2022-10-25T00:45:29.236Z,12.49
2022-10-25T00:48:03.547Z,12.38
2022-10-25T00:50:42.869Z,12.49
2022-10-25T00:53:16.822Z,12.40
2022-10-25T00:55:54.679Z,12.60
2022-10-25T00:58:29.011Z,12.46
2022-10-25T01:00:59.615Z,12.39
2022-10-25T01:03:29.457Z,12.52
2022-10-25T01:06:02.683Z,12.54
2022-10-25T01:08:32.471Z,12.51
2022-10-25T01:11:05.020Z,12.64
2022-10-25T01:13:34.667Z,12.63
2022-10-25T01:16:14.341Z,12.58
2022-10-25T01:18:51.247Z,12.54
2022-10-25T01:21:48.712Z,12.59
2022-10-25T01:24:50.667Z,12.59
2022-10-25T01:31:12.562Z,12.57
2022-10-25T01:33:47.570Z,12.41
2022-10-25T01:36:24.834Z,12.40
2022-10-25T01:39:02.156Z,12.36
2022-10-25T01:41:39.344Z,12.36
2022-10-25T01:44:23.627Z,12.30
2022-10-25T01:46:59.364Z,12.33
2022-10-25T01:49:37.923Z,12.24
2022-10-25T01:52:07.718Z,12.16
2022-10-25T01:54:37.499Z,12.35
2022-10-25T01:57:29.751Z,12.50
2022-10-25T02:00:08.208Z,12.22
2022-10-25T02:02:49.047Z,12.43
2022-10-25T02:05:24.077Z,12.24
2022-10-25T02:08:02.198Z,12.19
2022-10-25T02:10:39.445Z,12.17
2022-10-25T02:13:19.413Z,12.19
2022-10-25T02:15:59.073Z,12.11
2022-10-25T02:18:33.919Z,12.16
2022-10-25T02:21:04.871Z,12.17
2022-10-25T02:23:37.468Z,12.14
2022-10-25T02:26:10.935Z,12.11
2022-10-25T02:28:42.987Z,12.03
2022-10-25T02:31:18.083Z,12.34
2022-10-25T02:33:50.899Z,12.31
2022-10-25T02:36:23.874Z,12.20
2022-10-25T02:38:55.081Z,12.19
2022-10-25T02:41:25.596Z,12.25
2022-10-25T02:43:55.372Z,12.34
2022-10-25T02:46:26.454Z,12.24
2022-10-25T02:48:58.673Z,12.32
2022-10-25T02:51:28.680Z,12.28
2022-10-25T02:53:58.360Z,12.36
2022-10-25T02:56:28.131Z,12.25
2022-10-25T02:59:00.017Z,12.38
2022-10-25T03:01:29.908Z,12.18
2022-10-25T03:04:02.315Z,12.16
2022-10-25T03:06:32.402Z,12.21
2022-10-25T03:09:02.268Z,12.21
2022-10-25T03:11:31.975Z,12.25
2022-10-25T03:14:01.692Z,12.30
2022-10-25T03:16:31.498Z,12.39
2022-10-25T03:19:03.859Z,12.20
2022-10-25T03:21:35.573Z,12.27
2022-10-25T03:24:07.816Z,12.34
2022-10-25T03:26:37.560Z,12.39
2022-10-25T03:29:07.215Z,12.28
2022-10-25T03:31:37.070Z,12.15
2022-10-25T03:34:09.312Z,12.23
2022-10-25T03:36:39.031Z,12.34
2022-10-25T03:39:08.662Z,12.45
2022-10-25T03:41:38.413Z,12.26
2022-10-25T03:44:08.313Z,12.28
2022-10-25T03:46:38.046Z,12.26
2022-10-25T03:49:10.351Z,12.16
2022-10-25T03:51:40.064Z,12.35
2022-10-25T03:54:09.853Z,12.20
2022-10-25T03:56:39.542Z,12.03
2022-10-25T03:59:09.334Z,12.23
2022-10-25T04:01:39.180Z,12.21
2022-10-25T04:04:11.562Z,12.30
2022-10-25T04:06:41.257Z,12.27
2022-10-25T04:09:11.081Z,12.13
2022-10-25T04:11:40.755Z,12.05
2022-10-25T04:14:10.469Z,12.08
2022-10-25T04:16:40.254Z,12.09
2022-10-25T04:19:12.612Z,12.00
2022-10-25T04:21:42.265Z,12.02
2022-10-25T04:24:12.761Z,12.00
2022-10-25T04:26:42.866Z,12.11
2022-10-25T04:29:14.511Z,12.14
2022-10-25T04:31:44.244Z,11.94
2022-10-25T04:34:16.634Z,12.15
2022-10-25T04:36:46.228Z,12.05
2022-10-25T04:39:15.925Z,11.96
2022-10-25T04:41:45.523Z,11.92
2022-10-25T04:44:15.110Z,12.14
2022-10-25T04:46:46.493Z,12.06
2022-10-25T04:49:21.103Z,12.03
2022-10-25T04:54:21.316Z,12.07
2022-10-25T04:56:50.873Z,11.91
2022-10-25T04:59:20.535Z,12.08
2022-10-25T05:04:42.231Z,11.97
2022-10-25T05:07:11.914Z,11.99
2022-10-25T05:09:43.905Z,12.13
2022-10-25T05:12:16.950Z,12.01
2022-10-25T05:14:46.896Z,12.05
2022-10-25T05:17:16.632Z,11.98
2022-10-25T05:19:48.967Z,12.10
2022-10-25T05:22:18.675Z,11.97
2022-10-25T05:24:48.426Z,11.94
2022-10-25T05:27:18.421Z,11.90
2022-10-25T05:29:48.236Z,11.90
2022-10-25T05:32:17.879Z,11.92
2022-10-25T05:34:50.206Z,12.11
2022-10-25T05:37:19.879Z,11.93
2022-10-25T05:39:49.728Z,11.87
2022-10-25T05:42:19.462Z,11.75
2022-10-25T05:44:49.179Z,11.95
2022-10-25T05:47:18.956Z,11.93
2022-10-25T05:49:51.225Z,11.89
2022-10-25T05:52:20.910Z,11.94
2022-10-25T05:54:50.549Z,12.10
2022-10-25T05:57:20.599Z,12.12
2022-10-25T05:59:50.273Z,11.84
2022-10-25T06:02:20.014Z,11.80
2022-10-25T06:04:52.610Z,11.98
2022-10-25T06:07:22.567Z,11.84
2022-10-25T06:09:52.270Z,11.82
2022-10-25T06:12:21.967Z,11.93
2022-10-25T06:14:51.650Z,12.18
2022-10-25T06:17:21.386Z,12.13
2022-10-25T06:19:53.678Z,12.16
2022-10-25T06:22:23.430Z,12.04
2022-10-25T06:24:53.101Z,12.02
2022-10-25T06:27:22.814Z,12.07
2022-10-25T06:29:52.531Z,12.12
2022-10-25T06:32:22.234Z,12.29
2022-10-25T06:34:54.500Z,12.15
2022-10-25T06:37:24.252Z,12.28
2022-10-25T06:39:53.970Z,12.24
2022-10-25T06:42:23.753Z,12.38
2022-10-25T06:44:53.700Z,12.35
2022-10-25T06:47:23.450Z,12.28
2022-10-25T06:49:55.716Z,12.16
2022-10-25T06:52:25.420Z,12.34
2022-10-25T06:54:55.053Z,12.33
2022-10-25T06:57:24.726Z,12.51
2022-10-25T06:59:54.450Z,12.44
2022-10-25T07:02:24.354Z,12.50
2022-10-25T07:04:56.768Z,12.52
2022-10-25T07:07:26.412Z,12.52
2022-10-25T07:09:56.078Z,12.63
2022-10-25T07:12:25.731Z,12.63
2022-10-25T07:14:55.319Z,12.70
2022-10-25T07:17:25.146Z,12.72
2022-10-25T07:19:58.173Z,12.77
2022-10-25T07:22:28.674Z,12.88
2022-10-25T07:24:58.487Z,12.81
2022-10-25T07:27:28.439Z,12.84
2022-10-25T07:29:58.111Z,13.07
2022-10-25T07:32:28.207Z,13.10
2022-10-25T07:35:00.632Z,13.10
2022-10-25T07:37:30.465Z,13.37
2022-10-25T07:40:00.113Z,13.34
2022-10-25T07:42:29.853Z,13.39
2022-10-25T07:44:59.536Z,13.41
2022-10-25T07:47:29.224Z,13.30
2022-10-25T07:50:01.518Z,13.77
2022-10-25T07:52:31.299Z,13.68
2022-10-25T07:55:00.978Z,13.68
2022-10-25T07:57:30.723Z,13.71
2022-10-25T08:00:00.882Z,13.86
2022-10-25T08:02:30.563Z,13.88
2022-10-25T08:05:02.790Z,14.11
2022-10-25T08:07:32.442Z,14.34
2022-10-25T08:10:02.081Z,14.74
2022-10-25T08:12:31.770Z,15.02
2022-10-25T08:15:01.521Z,15.04
2022-10-25T08:17:31.220Z,16.03
2022-10-25T08:20:03.662Z,17.38
2022-10-25T08:22:33.415Z,18.90
2022-10-25T08:25:05.347Z,20.24
2022-10-25T08:27:35.926Z,21.69
2022-10-25T08:30:05.664Z,22.87
2022-10-25T08:32:35.360Z,22.75
2022-10-25T08:35:08.238Z,22.80
2022-10-25T08:37:38.032Z,22.49
2022-10-25T08:40:09.660Z,22.33
2022-10-25T08:42:49.871Z,21.10
2022-10-25T08:45:24.298Z,20.01
2022-10-25T08:47:57.060Z,18.91
2022-10-25T08:50:40.991Z,18.52
2022-10-25T08:53:19.561Z,18.53
2022-10-25T08:56:11.595Z,18.74
2022-10-25T08:58:46.459Z,18.72
2022-10-25T09:01:19.535Z,18.28
2022-10-25T09:03:49.373Z,18.66
2022-10-25T09:06:31.970Z,17.77
2022-10-25T09:09:10.426Z,17.69
2022-10-25T09:11:56.408Z,17.49
2022-10-25T09:14:34.976Z,17.84
2022-10-25T09:17:15.231Z,17.98
2022-10-25T09:19:57.575Z,17.94
2022-10-25T09:22:32.581Z,17.92
2022-10-25T09:25:05.904Z,17.91
2022-10-25T09:27:38.898Z,17.69
2022-10-25T09:30:11.749Z,17.77
2022-10-25T09:32:43.509Z,17.89
2022-10-25T09:35:19.753Z,17.93
2022-10-25T09:37:56.142Z,17.73
2022-10-25T09:40:28.750Z,17.89
2022-10-25T09:43:00.889Z,17.91
2022-10-25T09:45:42.074Z,17.37
2022-10-25T09:48:18.292Z,17.20
2022-10-25T09:50:53.412Z,17.20
2022-10-25T09:53:25.695Z,17.02
2022-10-25T09:55:57.343Z,17.08
2022-10-25T09:58:30.585Z,17.48
2022-10-25T10:01:04.224Z,17.97
2022-10-25T10:03:37.091Z,18.16
2022-10-25T10:06:17.743Z,19.27
2022-10-25T10:08:53.235Z,20.44
2022-10-25T10:11:24.740Z,20.98
2022-10-25T10:14:00.129Z,21.52
2022-10-25T10:16:35.703Z,22.41
2022-10-25T10:19:18.508Z,22.67
2022-10-25T10:21:50.512Z,23.27
2022-10-25T10:24:25.230Z,23.23
2022-10-25T10:27:08.701Z,24.12
2022-10-25T10:29:40.332Z,22.58
2022-10-25T10:32:26.956Z,21.27
2022-10-25T10:35:01.560Z,21.21
2022-10-25T10:37:32.628Z,23.08
2022-10-25T10:40:07.088Z,24.07
2022-10-25T10:42:41.382Z,24.69
2022-10-25T10:45:19.940Z,26.38
2022-10-25T10:47:59.734Z,26.98
2022-10-25T10:50:32.906Z,28.21
2022-10-25T10:53:06.144Z,28.46
2022-10-25T10:55:39.949Z,27.73
2022-10-25T10:58:16.637Z,29.60
2022-10-25T11:00:53.423Z,29.25
2022-10-25T11:03:53.469Z,28.93
2022-10-25T11:06:32.533Z,30.11
2022-10-25T11:09:17.018Z,28.85
2022-10-25T11:12:08.932Z,29.48
2022-10-25T11:14:38.733Z,28.27
2022-10-25T11:17:17.057Z,28.83
2022-10-25T11:20:02.371Z,30.57
2022-10-25T11:22:50.887Z,31.64
2022-10-25T11:25:33.297Z,31.68
2022-10-25T11:28:20.708Z,31.52
2022-10-25T11:31:00.317Z,32.40
2022-10-25T11:33:45.182Z,32.73
2022-10-25T11:36:45.382Z,32.49
2022-10-25T11:39:28.898Z,33.03
2022-10-25T11:42:07.658Z,32.32
2022-10-25T11:45:12.284Z,32.56
2022-10-25T11:47:50.277Z,32.60
2022-10-25T11:50:28.530Z,32.35
2022-10-25T11:53:28.794Z,32.60
2022-10-25T11:56:03.638Z,32.29
2022-10-25T11:58:48.212Z,32.71
2022-10-25T12:01:34.417Z,32.54
2022-10-25T12:04:26.955Z,29.86
2022-10-25T12:07:07.301Z,30.54
2022-10-25T12:09:48.075Z,27.57
2022-10-25T12:12:21.437Z,27.30
2022-10-25T12:14:55.394Z,24.96
2022-10-25T12:17:31.733Z,23.65
2022-10-25T12:20:04.830Z,22.47
2022-10-25T12:22:41.348Z,21.65
2022-10-25T12:25:21.124Z,21.01
2022-10-25T12:27:56.471Z,20.31
2022-10-25T12:33:28.815Z,19.69
2022-10-25T12:36:04.506Z,19.42
2022-10-25T12:38:38.014Z,19.49
2022-10-25T12:41:12.788Z,19.63
2022-10-25T12:43:54.349Z,19.39
2022-10-25T12:46:50.709Z,19.32
2022-10-25T12:49:51.039Z,19.28
2022-10-25T12:52:42.261Z,19.17
2022-10-25T12:55:31.327Z,19.10
2022-10-25T12:58:20.209Z,18.94
2022-10-25T13:01:05.737Z,18.89
2022-10-25T13:03:58.106Z,19.39
2022-10-25T13:06:37.170Z,19.53
2022-10-25T13:09:10.883Z,19.46
2022-10-25T13:11:44.501Z,19.64
2022-10-25T13:14:24.312Z,19.65
2022-10-25T13:16:53.976Z,19.69
2022-10-25T13:19:53.685Z,19.61
2022-10-25T13:22:43.821Z,19.46
2022-10-25T13:25:21.385Z,19.19
2022-10-25T13:28:21.034Z,19.14
2022-10-25T13:30:50.671Z,18.97
2022-10-25T13:33:33.835Z,18.99
2022-10-25T13:36:09.470Z,18.95
2022-10-25T13:38:41.951Z,18.81
2022-10-25T13:41:17.055Z,18.62
2022-10-25T13:44:01.372Z,18.47
2022-10-25T13:46:35.499Z,18.42
2022-10-25T13:49:28.090Z,18.26
2022-10-25T13:51:59.046Z,18.18
2022-10-25T13:54:41.286Z,18.37
2022-10-25T13:57:50.344Z,18.35
2022-10-25T14:00:37.431Z,18.40
2022-10-25T14:03:29.271Z,18.43
2022-10-25T14:06:25.664Z,18.42
2022-10-25T14:09:16.347Z,18.50
2022-10-25T14:11:52.851Z,18.42
2022-10-25T14:14:30.482Z,18.31
2022-10-25T14:17:11.737Z,18.30
2022-10-25T14:19:45.833Z,18.31
2022-10-25T14:22:18.944Z,18.20
2022-10-25T14:24:52.920Z,18.15
2022-10-25T14:27:36.676Z,18.09
2022-10-25T14:30:26.449Z,18.00
2022-10-25T14:32:58.501Z,18.06
2022-10-25T14:35:34.457Z,18.12
2022-10-25T14:38:05.435Z,18.10
2022-10-25T14:40:35.334Z,18.01
2022-10-25T14:43:36.046Z,17.87
2022-10-25T14:46:15.572Z,17.89
2022-10-25T14:48:47.883Z,17.86
2022-10-25T14:51:22.931Z,17.89
2022-10-25T14:53:58.656Z,17.85
2022-10-25T14:56:32.125Z,17.79
2022-10-25T14:59:05.906Z,17.67
2022-10-25T15:01:36.755Z,17.73
2022-10-25T15:04:06.811Z,17.60
2022-10-25T15:06:36.636Z,17.52
2022-10-25T15:09:41.206Z,17.39
2022-10-25T15:12:18.090Z,17.36
2022-10-25T15:14:51.126Z,17.25
2022-10-25T15:17:27.512Z,17.21
2022-10-25T15:20:08.853Z,17.12
2022-10-25T15:22:46.659Z,17.28
2022-10-25T15:25:22.223Z,17.12
2022-10-25T15:27:54.761Z,16.93
2022-10-25T15:30:41.521Z,16.91
2022-10-25T15:33:14.428Z,16.79
2022-10-25T15:35:50.282Z,16.66
2022-10-25T15:38:20.713Z,16.59
2022-10-25T15:40:52.008Z,16.55
2022-10-25T15:43:21.754Z,16.47
2022-10-25T15:45:54.290Z,16.42
2022-10-25T15:48:27.696Z,16.33
2022-10-25T15:50:59.217Z,16.24
2022-10-25T15:53:28.856Z,16.25
2022-10-25T15:55:58.490Z,16.11
2022-10-25T15:58:28.676Z,16.02
2022-10-25T16:01:01.088Z,15.92
2022-10-25T16:03:30.729Z,15.85
2022-10-25T16:06:00.358Z,15.80
2022-10-25T16:08:30.112Z,15.68
2022-10-25T16:11:00.486Z,15.60
2022-10-25T16:13:35.675Z,15.49
2022-10-25T16:16:34.829Z,15.39
2022-10-25T16:19:01.171Z,15.28
2022-10-25T16:21:33.240Z,15.25
2022-10-25T16:24:02.904Z,15.16
2022-10-25T16:26:38.039Z,15.18
2022-10-25T16:29:07.755Z,15.16
2022-10-25T16:31:40.178Z,15.14
2022-10-25T16:34:09.914Z,15.06
2022-10-25T16:36:39.640Z,15.13
2022-10-25T16:39:11.492Z,15.12
2022-10-25T16:41:42.804Z,15.30
2022-10-25T16:44:14.256Z,15.19
2022-10-25T16:46:46.697Z,15.06
2022-10-25T16:49:16.721Z,15.01
2022-10-25T16:51:46.586Z,14.94
2022-10-25T16:54:18.793Z,14.85
2022-10-25T16:56:51.543Z,14.76
2022-10-25T16:59:21.182Z,14.74
2022-10-25T17:01:57.070Z,14.65
2022-10-25T17:04:26.998Z,14.61
2022-10-25T17:06:56.707Z,14.58
2022-10-25T17:09:26.342Z,14.55
2022-10-25T17:11:56.045Z,14.55
2022-10-25T17:14:25.758Z,14.50
2022-10-25T17:17:02.303Z,14.41
2022-10-25T17:19:33.248Z,14.39
2022-10-25T17:22:02.911Z,14.34
2022-10-25T17:24:35.985Z,14.31
2022-10-25T17:29:55.270Z,14.19
2022-10-25T17:32:27.585Z,14.18
2022-10-25T17:34:57.310Z,14.16
2022-10-25T17:37:26.913Z,14.14
2022-10-25T17:39:56.547Z,14.24
2022-10-25T17:42:26.315Z,14.22
2022-10-25T17:44:55.944Z,14.18
2022-10-25T17:47:28.292Z,14.25
2022-10-25T17:50:01.624Z,14.27
2022-10-25T17:52:31.354Z,14.41
2022-10-25T17:55:00.961Z,14.47
2022-10-25T17:57:30.670Z,14.50
2022-10-25T18:00:00.349Z,14.49
2022-10-25T18:02:32.659Z,14.47
2022-10-25T18:05:19.342Z,14.48
2022-10-25T18:07:50.139Z,14.49
2022-10-25T18:10:20.084Z,14.43
2022-10-25T18:12:50.696Z,14.36
2022-10-25T18:15:23.172Z,14.54
2022-10-25T18:17:55.455Z,14.45
2022-10-25T18:20:25.557Z,14.45
2022-10-25T18:22:55.663Z,14.50
2022-10-25T18:25:25.402Z,14.36
2022-10-25T18:27:55.043Z,14.33
2022-10-25T18:30:25.023Z,14.32
2022-10-25T18:32:57.305Z,14.31
2022-10-25T18:35:26.922Z,14.25
2022-10-25T18:37:59.186Z,14.36
2022-10-25T18:40:29.285Z,14.21
2022-10-25T18:42:59.255Z,14.25
2022-10-25T18:45:29.783Z,14.28
2022-10-25T18:48:02.264Z,14.24
2022-10-25T18:50:31.981Z,14.15
2022-10-25T18:53:01.672Z,14.05
2022-10-25T18:55:31.612Z,14.17
2022-10-25T18:58:01.939Z,14.06
2022-10-25T19:00:31.924Z,13.96
2022-10-25T19:03:04.270Z,13.90
2022-10-25T19:05:39.896Z,14.09
2022-10-25T19:08:10.680Z,14.04
2022-10-25T19:10:41.242Z,13.95
2022-10-25T19:13:18.884Z,13.89
2022-10-25T19:15:48.654Z,13.88
2022-10-25T19:18:20.911Z,13.94
2022-10-25T19:20:50.510Z,13.85
2022-10-25T19:23:20.143Z,13.93
2022-10-25T19:25:49.884Z,14.11
2022-10-25T19:28:19.591Z,14.21
2022-10-25T19:30:49.927Z,14.03
2022-10-25T19:33:22.189Z,14.13
2022-10-25T19:35:51.881Z,14.01
2022-10-25T19:38:21.537Z,13.99
2022-10-25T19:40:51.211Z,13.94
2022-10-25T19:43:20.860Z,13.91
2022-10-25T19:45:50.569Z,13.97
2022-10-25T19:48:22.841Z,14.07
2022-10-25T19:50:52.635Z,13.95
2022-10-25T19:53:22.454Z,14.01
2022-10-25T19:56:01.064Z,13.83
2022-10-25T19:58:31.251Z,13.77
2022-10-25T20:01:05.715Z,13.86
2022-10-25T20:03:38.352Z,13.64
2022-10-25T20:06:10.682Z,13.63
2022-10-25T20:08:42.263Z,13.62
2022-10-25T20:11:14.345Z,13.63
2022-10-25T20:13:44.068Z,13.61
2022-10-25T20:16:13.925Z,13.79
2022-10-25T20:18:46.200Z,13.76
2022-10-25T20:21:17.736Z,13.74
2022-10-25T20:23:50.294Z,13.66
2022-10-25T20:26:22.588Z,13.61
2022-10-25T20:28:55.221Z,13.72
2022-10-25T20:31:25.821Z,13.71
2022-10-25T20:33:58.954Z,13.70
2022-10-25T20:36:29.101Z,13.71
2022-10-25T20:38:58.868Z,13.47
2022-10-25T20:41:30.493Z,13.66
2022-10-25T20:44:03.053Z,13.67
2022-10-25T20:46:33.658Z,13.52
2022-10-25T20:49:07.645Z,13.40
2022-10-25T20:51:38.087Z,13.38
2022-10-25T20:54:09.871Z,13.52
2022-10-25T20:56:40.180Z,13.44
2022-10-25T20:59:10.680Z,13.53
2022-10-25T21:01:40.462Z,13.62
2022-10-25T21:04:16.148Z,13.56
2022-10-25T21:06:49.244Z,13.66
2022-10-25T21:09:18.955Z,13.41
2022-10-25T21:11:48.781Z,13.47
2022-10-25T21:14:18.774Z,13.43
2022-10-25T21:16:49.672Z,13.49
2022-10-25T21:19:22.036Z,13.49
2022-10-25T21:21:51.736Z,13.38
2022-10-25T21:24:21.438Z,13.25
2022-10-25T21:26:51.730Z,13.29
2022-10-25T21:29:21.438Z,13.20
2022-10-25T21:31:51.434Z,13.32
2022-10-25T21:34:23.668Z,13.28
2022-10-25T21:36:53.375Z,13.29
2022-10-25T21:39:24.557Z,13.22
2022-10-25T21:41:54.790Z,12.90
2022-10-25T21:44:24.786Z,13.13
2022-10-25T21:46:54.513Z,13.21
2022-10-25T21:49:26.814Z,13.26
2022-10-25T21:51:56.564Z,13.33
2022-10-25T21:54:26.283Z,13.30
2022-10-25T21:56:56.084Z,13.25
2022-10-25T21:59:26.009Z,13.23
2022-10-25T22:01:55.885Z,13.23
2022-10-25T22:04:28.212Z,13.26
2022-10-25T22:06:57.885Z,13.28
2022-10-25T22:09:27.730Z,13.17
2022-10-25T22:11:57.374Z,12.94
2022-10-25T22:14:26.929Z,13.19
2022-10-25T22:16:56.747Z,13.32
2022-10-25T22:19:29.143Z,13.31
2022-10-25T22:21:58.968Z,13.29
2022-10-25T22:24:28.764Z,13.29
2022-10-25T22:26:58.515Z,13.42
2022-10-25T22:29:28.408Z,13.33
2022-10-25T22:31:58.040Z,13.21
2022-10-25T22:34:30.801Z,13.14
2022-10-25T22:37:01.559Z,13.25
2022-10-25T22:39:31.246Z,13.29
2022-10-25T22:42:00.914Z,13.21
2022-10-25T22:44:30.535Z,12.98
2022-10-25T22:47:00.164Z,13.22
2022-10-25T22:49:32.542Z,13.22
2022-10-25T22:52:02.244Z,13.19
2022-10-25T22:54:32.021Z,13.18
2022-10-25T22:57:01.664Z,12.97
2022-10-25T22:59:31.334Z,13.10
2022-10-25T23:02:01.076Z,13.30
2022-10-25T23:04:33.350Z,13.19
2022-10-25T23:07:03.014Z,13.35
2022-10-25T23:09:32.634Z,13.39
2022-10-25T23:12:02.357Z,13.30
2022-10-25T23:14:32.034Z,13.05
2022-10-25T23:17:01.725Z,13.05
2022-10-25T23:19:33.941Z,13.17
2022-10-25T23:22:03.655Z,13.09
2022-10-25T23:24:33.298Z,13.08
2022-10-25T23:27:02.963Z,13.04
2022-10-25T23:29:32.572Z,13.06
2022-10-25T23:32:02.292Z,13.11
2022-10-25T23:34:34.529Z,13.24
2022-10-25T23:37:04.164Z,13.00
2022-10-25T23:39:33.876Z,12.96
2022-10-25T23:42:03.768Z,13.11
2022-10-25T23:44:33.394Z,12.97
2022-10-25T23:47:03.013Z,12.88
2022-10-25T23:49:35.242Z,12.78
2022-10-25T23:52:04.833Z,13.04
2022-10-25T23:54:34.460Z,13.16
2022-10-25T23:57:04.057Z,13.15
2022-10-25T23:59:33.694Z,13.17
